createdAt,value
2022-12-05T00:00:28.728Z,42.63
2022-12-05T00:03:13.496Z,44.95
2022-12-05T00:05:46.405Z,47.42
2022-12-05T00:08:19.136Z,43.22
2022-12-05T00:10:52.047Z,49.83
2022-12-05T00:13:24.597Z,47.13
2022-12-05T00:15:57.602Z,45.83
2022-12-05T00:18:30.187Z,47.03
2022-12-05T00:21:03.592Z,34.95
2022-12-05T00:23:36.097Z,36.95
2022-12-05T00:26:09.657Z,48.28
2022-12-05T00:28:42.445Z,36.00
2022-12-05T00:31:16.940Z,44.33
2022-12-05T00:33:49.913Z,50.10
2022-12-05T00:36:24.285Z,29.85
2022-12-05T00:38:56.869Z,41.65
2022-12-05T00:41:30.249Z,38.15
2022-12-05T00:44:03.403Z,41.38
2022-12-05T00:46:36.824Z,50.15
2022-12-05T00:49:11.416Z,44.08
2022-12-05T00:51:44.359Z,37.38
2022-12-05T00:54:17.524Z,42.25
2022-12-05T00:56:52.922Z,38.15
2022-12-05T00:59:25.552Z,49.17
2022-12-05T01:01:58.631Z,44.08
2022-12-05T01:04:31.157Z,44.58
2022-12-05T01:07:04.051Z,46.38
2022-12-05T01:09:36.644Z,34.72
2022-12-05T01:12:09.504Z,47.33
2022-12-05T01:14:42.012Z,39.92
2022-12-05T01:17:15.131Z,51.05
2022-12-05T01:19:47.697Z,46.83
2022-12-05T01:22:20.780Z,47.85
2022-12-05T01:24:53.283Z,42.40
2022-12-05T01:27:26.429Z,36.78
2022-12-05T01:29:59.319Z,49.35
2022-12-05T01:32:32.399Z,48.10
2022-12-05T01:35:06.306Z,53.40
2022-12-05T01:37:39.198Z,56.53
2022-12-05T01:40:11.769Z,44.05
2022-12-05T01:42:44.613Z,41.25
2022-12-05T01:45:27.011Z,45.10
2022-12-05T01:48:03.240Z,45.20
2022-12-05T01:50:36.314Z,42.05
2022-12-05T01:53:09.319Z,47.88
2022-12-05T01:55:42.075Z,48.67
2022-12-05T01:58:15.615Z,50.45
2022-12-05T02:00:48.440Z,53.55
2022-12-05T02:03:22.407Z,44.92
2022-12-05T02:05:55.431Z,45.67
2022-12-05T02:08:28.847Z,37.28
2022-12-05T02:11:01.416Z,35.58
2022-12-05T02:13:34.265Z,48.58
2022-12-05T02:16:19.459Z,40.95
2022-12-05T02:19:01.388Z,44.15
2022-12-05T02:21:52.681Z,49.20
2022-12-05T02:24:43.828Z,31.85
2022-12-05T02:27:35.018Z,33.25
2022-12-05T02:30:10.771Z,43.40
2022-12-05T02:32:50.991Z,40.35
2022-12-05T02:35:23.781Z,39.92
2022-12-05T02:38:02.342Z,41.20
2022-12-05T02:40:40.263Z,37.03
2022-12-05T02:43:32.995Z,46.53
2022-12-05T02:46:11.420Z,37.85
2022-12-05T02:48:46.194Z,35.95
2022-12-05T02:51:21.780Z,36.70
2022-12-05T02:53:58.518Z,39.10
2022-12-05T02:56:33.434Z,41.50
2022-12-05T02:59:06.102Z,41.83
2022-12-05T03:01:39.447Z,36.85
2022-12-05T03:04:12.808Z,45.58
2022-12-05T03:06:48.908Z,25.35
2022-12-05T03:09:27.685Z,45.58
2022-12-05T03:12:09.250Z,48.70
2022-12-05T03:14:47.366Z,42.35
2022-12-05T03:17:23.487Z,27.23
2022-12-05T03:20:07.360Z,37.28
2022-12-05T03:22:49.373Z,32.65
2022-12-05T03:25:24.892Z,38.17
2022-12-05T03:28:05.347Z,34.28
2022-12-05T03:30:39.089Z,41.17
2022-12-05T03:33:12.003Z,37.67
2022-12-05T03:35:57.470Z,37.00
2022-12-05T03:38:56.697Z,43.17
2022-12-05T03:42:04.641Z,31.40
2022-12-05T03:44:47.337Z,30.90
2022-12-05T03:47:24.895Z,51.10
2022-12-05T03:50:00.192Z,30.65
2022-12-05T03:53:18.194Z,38.13
2022-12-05T03:55:41.654Z,42.75
2022-12-05T03:58:34.357Z,39.95
2022-12-05T04:01:09.011Z,37.78
2022-12-05T04:03:45.159Z,40.05
2022-12-05T04:06:21.824Z,35.05
2022-12-05T04:08:56.822Z,39.95
2022-12-05T04:11:32.931Z,39.92
2022-12-05T04:14:18.524Z,40.00
2022-12-05T04:17:06.485Z,32.30
2022-12-05T04:20:00.929Z,29.35
2022-12-05T04:22:35.328Z,31.98
2022-12-05T04:25:28.025Z,36.13
2022-12-05T04:28:06.808Z,39.22
2022-12-05T04:30:49.376Z,28.50
2022-12-05T04:33:32.898Z,39.10
2022-12-05T04:36:14.585Z,29.08
2022-12-05T04:38:58.187Z,44.25
2022-12-05T04:41:34.536Z,37.83
2022-12-05T04:44:09.243Z,43.45
2022-12-05T04:46:44.194Z,36.45
2022-12-05T04:49:19.719Z,35.33
2022-12-05T04:51:55.494Z,33.97
2022-12-05T04:54:33.048Z,36.65
2022-12-05T04:57:08.028Z,34.22
2022-12-05T04:59:41.068Z,44.60
2022-12-05T05:02:15.292Z,29.85
2022-12-05T05:04:51.358Z,28.13
2022-12-05T05:07:23.956Z,36.55
2022-12-05T05:09:57.381Z,33.15
2022-12-05T05:12:30.107Z,40.03
2022-12-05T05:15:02.933Z,42.70
2022-12-05T05:17:35.435Z,38.50
2022-12-05T05:20:27.663Z,31.92
2022-12-05T05:23:00.502Z,40.92
2022-12-05T05:25:33.398Z,46.55
2022-12-05T05:28:06.135Z,41.90
2022-12-05T05:30:39.030Z,39.20
2022-12-05T05:33:11.584Z,36.75
2022-12-05T05:35:44.503Z,44.30
2022-12-05T05:38:17.229Z,49.22
2022-12-05T05:40:53.033Z,32.55
2022-12-05T05:43:25.676Z,34.90
2022-12-05T05:45:59.313Z,34.17
2022-12-05T05:48:31.931Z,38.10
2022-12-05T05:51:06.008Z,41.67
2022-12-05T05:53:38.679Z,34.30
2022-12-05T05:56:17.116Z,35.10
2022-12-05T05:59:00.484Z,37.50
2022-12-05T06:01:33.331Z,51.60
2022-12-05T06:04:06.015Z,44.38
2022-12-05T06:06:38.936Z,43.65
2022-12-05T06:09:11.708Z,39.97
2022-12-05T06:11:44.805Z,45.92
2022-12-05T06:14:17.401Z,40.13
2022-12-05T06:16:50.289Z,32.60
2022-12-05T06:19:22.970Z,39.42
2022-12-05T06:21:55.907Z,26.25
2022-12-05T06:24:28.929Z,34.13
2022-12-05T06:27:01.949Z,39.25
2022-12-05T06:29:35.616Z,42.20
2022-12-05T06:32:09.460Z,48.28
2022-12-05T06:34:42.664Z,37.00
2022-12-05T06:37:15.501Z,40.83
2022-12-05T06:39:48.433Z,34.90
2022-12-05T06:42:22.601Z,42.22
2022-12-05T06:44:55.087Z,33.78
2022-12-05T06:47:28.151Z,34.10
2022-12-05T06:50:01.904Z,44.58
2022-12-05T06:52:35.106Z,48.05
2022-12-05T06:55:07.835Z,39.08
2022-12-05T06:57:40.770Z,31.92
2022-12-05T07:00:34.159Z,38.15
2022-12-05T07:03:07.341Z,22.73
2022-12-05T07:05:40.437Z,32.08
2022-12-05T07:08:13.369Z,32.35
2022-12-05T07:10:51.118Z,30.48
2022-12-05T07:13:24.228Z,35.72
2022-12-05T07:15:59.409Z,34.40
2022-12-05T07:18:32.759Z,40.25
2022-12-05T07:21:14.465Z,35.72
2022-12-05T07:23:48.435Z,34.08
2022-12-05T07:26:22.897Z,34.00
2022-12-05T07:28:56.509Z,36.15
2022-12-05T07:31:30.175Z,30.77
2022-12-05T07:34:03.351Z,33.75
2022-12-05T07:36:36.023Z,40.85
2022-12-05T07:39:09.694Z,42.15
2022-12-05T07:41:42.538Z,26.75
2022-12-05T07:44:16.459Z,37.97
2022-12-05T07:46:49.092Z,31.13
2022-12-05T07:49:22.093Z,34.90
2022-12-05T07:51:54.687Z,27.98
2022-12-05T07:54:28.064Z,31.25
2022-12-05T07:57:00.579Z,37.55
2022-12-05T07:59:33.561Z,29.55
2022-12-05T08:02:06.639Z,30.35
2022-12-05T08:04:39.821Z,30.60
2022-12-05T08:07:12.365Z,31.73
2022-12-05T08:09:45.354Z,28.25
2022-12-05T08:12:17.874Z,32.92
2022-12-05T08:14:50.947Z,45.05
2022-12-05T08:17:23.799Z,38.95
2022-12-05T08:19:57.310Z,34.25
2022-12-05T08:22:30.140Z,47.30
2022-12-05T08:25:03.432Z,40.15
2022-12-05T08:27:35.932Z,41.63
2022-12-05T08:30:09.036Z,36.45
2022-12-05T08:32:41.601Z,45.70
2022-12-05T08:35:14.653Z,41.50
2022-12-05T08:37:47.690Z,41.03
2022-12-05T08:40:20.684Z,30.75
2022-12-05T08:42:53.292Z,32.05
2022-12-05T08:45:26.256Z,31.27
2022-12-05T08:47:58.830Z,32.30
2022-12-05T08:50:32.021Z,38.83
2022-12-05T08:53:04.534Z,31.30
2022-12-05T08:55:38.139Z,41.08
2022-12-05T08:58:10.788Z,38.33
2022-12-05T09:00:43.942Z,31.17
2022-12-05T09:03:16.491Z,31.23
2022-12-05T09:05:54.723Z,30.45
2022-12-05T09:08:27.542Z,39.83
2022-12-05T09:11:00.566Z,27.83
2022-12-05T09:13:33.321Z,35.50
2022-12-05T09:16:10.409Z,36.58
2022-12-05T09:18:43.684Z,44.08
2022-12-05T09:21:18.165Z,26.63
2022-12-05T09:23:51.218Z,24.52
2022-12-05T09:26:25.159Z,36.33
2022-12-05T09:28:59.002Z,28.20
2022-12-05T09:31:32.217Z,35.10
2022-12-05T09:34:04.894Z,33.25
2022-12-05T09:36:38.137Z,37.88
2022-12-05T09:39:11.498Z,34.30
2022-12-05T09:42:05.938Z,35.38
2022-12-05T09:44:42.078Z,35.38
2022-12-05T09:47:15.098Z,36.58
2022-12-05T09:50:10.996Z,32.50
2022-12-05T09:52:53.886Z,26.83
2022-12-05T09:55:29.882Z,28.20
2022-12-05T09:58:03.953Z,28.15
2022-12-05T10:00:37.425Z,38.97
2022-12-05T10:03:10.290Z,35.67
2022-12-05T10:05:49.591Z,32.70
2022-12-05T10:08:30.704Z,37.20
2022-12-05T10:11:06.801Z,38.47
2022-12-05T10:13:54.750Z,37.22
2022-12-05T10:16:32.831Z,31.85
2022-12-05T10:19:13.421Z,26.38
2022-12-05T10:21:49.926Z,37.28
2022-12-05T10:24:43.065Z,35.88
2022-12-05T10:27:19.256Z,43.20
2022-12-05T10:29:58.905Z,38.22
2022-12-05T10:32:31.789Z,34.53
2022-12-05T10:35:21.609Z,36.03
2022-12-05T10:37:55.711Z,35.83
2022-12-05T10:40:36.838Z,33.00
2022-12-05T10:43:12.469Z,40.17
2022-12-05T10:45:47.209Z,32.85
2022-12-05T10:48:20.659Z,47.20
2022-12-05T10:50:55.352Z,39.03
2022-12-05T10:53:29.335Z,41.28
2022-12-05T10:56:31.075Z,62.53
2022-12-05T10:58:59.173Z,45.55
2022-12-05T11:01:34.080Z,58.47
2022-12-05T11:04:13.752Z,40.80
2022-12-05T11:06:54.454Z,47.42
2022-12-05T11:09:34.077Z,47.15
2022-12-05T11:12:15.086Z,28.30
2022-12-05T11:14:58.789Z,45.80
2022-12-05T11:17:36.254Z,30.15
2022-12-05T11:20:20.960Z,62.75
2022-12-05T11:22:56.594Z,38.08
2022-12-05T11:25:29.085Z,42.03
2022-12-05T11:28:34.548Z,95.25
2022-12-05T11:31:08.019Z,44.35
2022-12-05T11:33:41.605Z,36.22
2022-12-05T11:36:22.488Z,33.58
2022-12-05T11:38:56.036Z,39.83
2022-12-05T11:41:47.398Z,33.40
2022-12-05T11:44:30.148Z,36.80
2022-12-05T11:47:20.608Z,32.08
2022-12-05T11:50:08.518Z,35.67
2022-12-05T11:53:13.353Z,29.58
2022-12-05T11:55:54.308Z,36.30
2022-12-05T11:58:53.232Z,33.75
2022-12-05T12:01:35.316Z,34.15
2022-12-05T12:06:46.756Z,34.13
2022-12-05T12:09:28.201Z,33.30
2022-12-05T12:12:21.516Z,39.75
2022-12-05T12:15:04.049Z,28.38
2022-12-05T12:17:42.957Z,30.55
2022-12-05T12:20:30.677Z,35.65
2022-12-05T12:23:03.593Z,35.90
2022-12-05T12:25:45.139Z,36.58
2022-12-05T12:28:30.073Z,35.33
2022-12-05T12:31:17.811Z,35.60
2022-12-05T12:34:12.149Z,45.33
2022-12-05T12:36:50.776Z,41.33
2022-12-05T12:39:30.040Z,37.97
2022-12-05T12:42:05.793Z,29.42
2022-12-05T12:44:50.007Z,27.58
2022-12-05T12:47:41.284Z,42.25
2022-12-05T12:50:22.555Z,30.08
2022-12-05T12:53:04.074Z,37.58
2022-12-05T12:55:42.262Z,34.35
2022-12-05T12:58:17.560Z,36.40
2022-12-05T13:01:05.607Z,37.85
2022-12-05T13:03:41.844Z,37.90
2022-12-05T13:06:18.247Z,38.60
2022-12-05T13:08:57.899Z,31.83
2022-12-05T13:11:35.453Z,28.42
2022-12-05T13:14:13.002Z,32.85
2022-12-05T13:16:51.197Z,30.15
2022-12-05T13:19:26.291Z,39.15
2022-12-05T13:21:59.632Z,60.47
2022-12-05T13:24:32.320Z,81.65
2022-12-05T13:27:06.504Z,74.50
2022-12-05T13:29:42.753Z,51.38
2022-12-05T13:32:29.966Z,44.33
2022-12-05T13:35:05.356Z,46.30
2022-12-05T13:38:04.273Z,38.40
2022-12-05T13:40:58.346Z,37.67
2022-12-05T13:43:31.308Z,42.33
2022-12-05T13:46:08.283Z,38.17
2022-12-05T13:48:42.935Z,37.83
2022-12-05T13:51:25.245Z,34.65
2022-12-05T13:54:01.024Z,29.08
2022-12-05T13:56:53.910Z,41.25
2022-12-05T13:59:45.671Z,38.88
2022-12-05T14:02:36.724Z,33.72
2022-12-05T14:05:18.167Z,31.33
2022-12-05T14:07:51.891Z,35.73
2022-12-05T14:10:25.045Z,34.25
2022-12-05T14:12:59.063Z,40.00
2022-12-05T14:15:32.059Z,38.40
2022-12-05T14:18:14.295Z,31.88
2022-12-05T14:21:02.237Z,43.58
2022-12-05T14:23:55.012Z,36.53
2022-12-05T14:26:51.802Z,40.17
2022-12-05T14:29:33.560Z,34.40
2022-12-05T14:32:22.800Z,40.70
2022-12-05T14:35:02.415Z,45.03
2022-12-05T14:37:36.932Z,48.03
2022-12-05T14:40:29.832Z,40.50
2022-12-05T14:43:04.913Z,32.25
2022-12-05T14:45:39.570Z,39.22
2022-12-05T14:48:15.418Z,35.80
2022-12-05T14:50:49.070Z,41.83
2022-12-05T14:53:21.933Z,31.75
2022-12-05T14:55:54.743Z,32.22
2022-12-05T14:58:27.695Z,31.52
2022-12-05T15:01:02.558Z,26.60
2022-12-05T15:03:40.815Z,20.63
2022-12-05T15:06:15.988Z,24.83
2022-12-05T15:08:50.165Z,32.28
2022-12-05T15:11:30.814Z,29.77
2022-12-05T15:14:09.791Z,14.68
2022-12-05T15:16:43.912Z,21.38
2022-12-05T15:19:23.250Z,18.77
2022-12-05T15:21:58.113Z,17.45
2022-12-05T15:24:36.958Z,18.55
2022-12-05T15:27:12.074Z,17.20
2022-12-05T15:29:45.288Z,25.85
2022-12-05T15:32:20.308Z,16.48
2022-12-05T15:34:56.469Z,31.88
2022-12-05T15:37:48.877Z,40.67
2022-12-05T15:40:22.648Z,42.92
2022-12-05T15:42:56.559Z,40.70
2022-12-05T15:45:30.419Z,59.10
2022-12-05T15:48:03.238Z,59.50
2022-12-05T15:50:47.708Z,51.00
2022-12-05T15:53:20.429Z,44.72
2022-12-05T15:55:55.782Z,56.35
2022-12-05T15:58:43.367Z,63.95
2022-12-05T16:01:20.436Z,72.55
2022-12-05T16:03:53.151Z,69.30
2022-12-05T16:06:34.524Z,86.03
2022-12-05T16:09:11.743Z,82.70
2022-12-05T16:11:55.112Z,80.88
2022-12-05T16:14:59.387Z,65.30
2022-12-05T16:17:30.749Z,73.85
2022-12-05T16:20:29.782Z,84.13
2022-12-05T16:23:21.352Z,61.53
2022-12-05T16:25:53.991Z,74.82
2022-12-05T16:28:33.256Z,64.82
2022-12-05T16:31:06.449Z,62.65
2022-12-05T16:33:43.527Z,55.55
2022-12-05T16:36:17.039Z,57.92
2022-12-05T16:38:50.200Z,46.33
2022-12-05T16:41:25.691Z,53.25
2022-12-05T16:43:58.709Z,59.58
2022-12-05T16:46:37.551Z,53.60
2022-12-05T16:49:18.598Z,43.05
2022-12-05T16:52:14.787Z,39.17
2022-12-05T16:54:49.094Z,51.33
2022-12-05T16:57:24.567Z,42.95
2022-12-05T16:59:57.856Z,59.53
2022-12-05T17:02:30.715Z,51.13
2022-12-05T17:05:07.272Z,64.20
2022-12-05T17:07:40.089Z,55.45
2022-12-05T17:10:13.113Z,70.70
2022-12-05T17:12:47.839Z,59.92
2022-12-05T17:15:21.101Z,44.22
2022-12-05T17:17:54.557Z,44.65
2022-12-05T17:20:27.913Z,35.72
2022-12-05T17:23:00.445Z,41.60
2022-12-05T17:25:36.657Z,36.42
2022-12-05T17:28:09.322Z,51.20
2022-12-05T17:30:42.195Z,39.67
2022-12-05T17:33:16.209Z,48.67
2022-12-05T17:35:49.133Z,50.75
2022-12-05T17:38:22.399Z,52.78
2022-12-05T17:40:55.329Z,40.40
2022-12-05T17:43:28.014Z,65.47
2022-12-05T17:46:01.307Z,64.65
2022-12-05T17:48:35.643Z,59.63
2022-12-05T17:51:11.709Z,55.65
2022-12-05T17:53:50.400Z,52.75
2022-12-05T17:56:23.300Z,43.65
2022-12-05T17:58:56.006Z,76.38
2022-12-05T18:01:28.991Z,55.30
2022-12-05T18:04:01.558Z,79.18
2022-12-05T18:06:34.520Z,52.95
2022-12-05T18:09:07.223Z,37.90
2022-12-05T18:11:40.457Z,27.20
2022-12-05T18:14:13.438Z,38.33
2022-12-05T18:16:47.204Z,35.40
2022-12-05T18:19:24.079Z,28.98
2022-12-05T18:21:58.646Z,20.65
2022-12-05T18:24:31.282Z,44.72
2022-12-05T18:27:05.781Z,38.60
2022-12-05T18:29:39.596Z,45.03
2022-12-05T18:32:12.825Z,34.67
2022-12-05T18:34:45.694Z,35.35
2022-12-05T18:37:19.035Z,33.45
2022-12-05T18:39:51.633Z,32.55
2022-12-05T18:42:24.523Z,34.55
2022-12-05T18:44:57.340Z,28.15
2022-12-05T18:47:30.443Z,18.60
2022-12-05T18:50:03.089Z,21.55
2022-12-05T18:52:35.985Z,23.77
2022-12-05T18:55:17.331Z,27.45
2022-12-05T18:57:50.979Z,19.02
2022-12-05T19:00:23.624Z,32.05
2022-12-05T19:02:56.466Z,31.98
2022-12-05T19:05:30.630Z,30.40
2022-12-05T19:08:03.757Z,30.27
2022-12-05T19:10:36.596Z,32.90
2022-12-05T19:13:09.790Z,21.85
2022-12-05T19:15:42.340Z,36.20
2022-12-05T19:18:15.337Z,37.67
2022-12-05T19:20:51.539Z,27.88
2022-12-05T19:23:25.204Z,30.88
2022-12-05T19:26:01.121Z,23.20
2022-12-05T19:28:34.900Z,32.63
2022-12-05T19:31:09.032Z,36.10
2022-12-05T19:33:46.675Z,43.30
2022-12-05T19:36:20.566Z,42.45
2022-12-05T19:38:54.838Z,54.58
2022-12-05T19:41:28.616Z,53.72
2022-12-05T19:44:02.805Z,60.40
2022-12-05T19:46:37.208Z,85.38
2022-12-05T19:49:11.885Z,87.82
2022-12-05T19:51:45.136Z,73.80
2022-12-05T19:54:18.324Z,57.55
2022-12-05T19:56:51.088Z,62.53
2022-12-05T19:59:24.038Z,64.75
2022-12-05T20:01:56.679Z,71.72
2022-12-05T20:04:29.776Z,58.15
2022-12-05T20:07:02.447Z,43.80
2022-12-05T20:09:35.452Z,48.97
2022-12-05T20:12:08.135Z,43.53
2022-12-05T20:14:41.001Z,38.20
2022-12-05T20:17:13.570Z,48.38
2022-12-05T20:19:47.076Z,43.65
2022-12-05T20:22:19.567Z,36.08
2022-12-05T20:24:52.566Z,41.30
2022-12-05T20:27:25.240Z,51.80
2022-12-05T20:29:58.453Z,48.83
2022-12-05T20:32:31.204Z,60.55
2022-12-05T20:35:04.212Z,46.85
2022-12-05T20:37:36.933Z,47.95
2022-12-05T20:40:10.243Z,42.50
2022-12-05T20:42:46.665Z,47.33
2022-12-05T20:45:20.053Z,40.28
2022-12-05T20:47:52.830Z,40.95
2022-12-05T20:50:25.802Z,38.58
2022-12-05T20:52:58.355Z,37.05
2022-12-05T20:55:31.384Z,29.77
2022-12-05T20:58:05.319Z,30.13
2022-12-05T21:00:38.633Z,28.17
2022-12-05T21:03:17.039Z,27.48
2022-12-05T21:05:50.190Z,27.05
2022-12-05T21:08:22.789Z,35.35
2022-12-05T21:10:55.824Z,31.80
2022-12-05T21:13:28.412Z,40.03
2022-12-05T21:16:05.303Z,33.00
2022-12-05T21:18:38.478Z,35.95
2022-12-05T21:21:15.952Z,55.67
2022-12-05T21:23:53.675Z,63.95
2022-12-05T21:26:27.619Z,76.43
2022-12-05T21:29:01.200Z,39.85
2022-12-05T21:31:38.728Z,31.00
2022-12-05T21:34:16.505Z,38.95
2022-12-05T21:36:49.763Z,50.15
2022-12-05T21:39:22.272Z,45.53
2022-12-05T21:41:55.509Z,48.47
2022-12-05T21:44:28.073Z,44.25
2022-12-05T21:47:01.130Z,54.83
2022-12-05T21:49:33.675Z,43.33
2022-12-05T21:52:06.565Z,48.75
2022-12-05T21:54:39.209Z,48.03
2022-12-05T21:57:12.047Z,35.47
2022-12-05T21:59:44.706Z,40.17
2022-12-05T22:02:17.629Z,30.95
2022-12-05T22:04:50.214Z,48.60
2022-12-05T22:07:23.356Z,38.15
2022-12-05T22:09:56.228Z,34.33
2022-12-05T22:12:29.456Z,25.38
2022-12-05T22:15:02.081Z,38.38
2022-12-05T22:17:34.965Z,38.78
2022-12-05T22:20:07.779Z,45.78
2022-12-05T22:22:40.777Z,41.85
2022-12-05T22:25:13.357Z,36.42
2022-12-05T22:27:46.255Z,49.50
2022-12-05T22:30:19.198Z,63.63
2022-12-05T22:32:53.640Z,55.22
2022-12-05T22:35:26.340Z,44.75
2022-12-05T22:37:59.333Z,55.47
2022-12-05T22:40:31.888Z,58.28
2022-12-05T22:43:04.810Z,37.88
2022-12-05T22:45:37.448Z,42.83
2022-12-05T22:48:10.810Z,38.40
2022-12-05T22:50:50.899Z,31.63
2022-12-05T22:53:24.500Z,22.40
2022-12-05T22:56:07.734Z,24.50
2022-12-05T22:58:41.607Z,28.38
2022-12-05T23:01:18.552Z,22.50
2022-12-05T23:03:54.891Z,19.15
2022-12-05T23:06:28.002Z,18.80
2022-12-05T23:09:01.492Z,21.05
2022-12-05T23:11:34.374Z,24.63
2022-12-05T23:14:07.310Z,24.52
2022-12-05T23:16:39.995Z,21.08
2022-12-05T23:19:12.910Z,20.13
2022-12-05T23:21:45.520Z,17.60
2022-12-05T23:24:18.459Z,20.95
2022-12-05T23:26:51.180Z,29.52
2022-12-05T23:29:24.135Z,20.27
2022-12-05T23:31:56.741Z,20.88
2022-12-05T23:34:29.741Z,21.10
2022-12-05T23:37:02.305Z,24.95
2022-12-05T23:39:35.391Z,33.70
2022-12-05T23:42:13.615Z,29.98
2022-12-05T23:44:47.958Z,37.60
2022-12-05T23:47:20.426Z,26.70
2022-12-05T23:49:53.351Z,25.17
2022-12-05T23:52:26.086Z,28.25
2022-12-05T23:54:59.028Z,26.48
2022-12-05T23:57:31.708Z,28.75
